Pagina principale
METAR-TAF:

METAR-TAF

Aeroporti :

Aeroporto di Bari-Palese

Bari, Italia

latitudine: 41-08N, longitudine: 016-47E, altezza: 34 m

Osservazione

Il bollettino è stato emesso 37 minuti fa, alle 07:50 UTC
Vento 15 kt da nord
Temperature 13°C
Umidità 58%
Pressione 1010 hPa
Visibilità 10 km o più
Nubi sparse ad un'altezza di 3500 ft

METAR: LIBD 110750Z 01015KT 9999 SCT035 13/05 Q1010

Ora: 09:27 (08:27 UTC)

Previsione

Il bollettino è stato emesso 3 ore e 27 minuti fa, alle 05:00 UTC
Previsione valida dal 11 alle 06 UTC al 12 alle 06 UTC
Vento 13 kt da nord/nord-est
Visibilità 10 km o più
Nubi sparse ad un'altezza di 3000 ft
Temporaneamente
dal 11 alle 06 UTC al 11 alle 09 UTC
pioggia

TAF: LIBD 110500Z 1106/1206 03013KT 9999 SCT030 TEMPO 1106/1109 RA

Osservazioni e previsioni meteorologiche di più di 4000 aeroporti (messaggi METAR e TAF).

Le stazioni disponibili sono rappresentate dai dischi gialli e rossi sulla carta.

Puntare il mouse per vedere il nome della stazione.

Clicca sopra per visualizzare le osservazioni e previsioni meteorologiche.

Per cambiare la mappa : fare clic sui pulsanti verdi con una croce nera per ingrandire, il pulsante verde con un trattino per diminuire, o sulla freccia verde per le mappe adiacenti.


METAR-TAF: